Pagrindinis puslapis
METAR-TAF:

METAR-TAF

Oro uostai :

Lahr, Vokietija

platuma: 48-22-09N, ilguma: 007-49-40E, Aukštis: 156 m

Dabartinis oras

Ataskaita buvo paskelbta 1 valandą ir 29 minutes, ne 01:50 UTC
Vėjas 11 kt iš Pietų/Pietvakarių
Temperatūra 15°C
Drėgmė 51%
Slėgis 1016 hPa
Matomumas 10 km arba daugiau
nėra debesų žemiau 1500 m ir nėra kamuolinių lietaus debesų

METAR: EDTL 170150Z 20011KT CAVOK 15/05 Q1016

Laikas: 04:19 (03:19 UTC)


TAF: trūkstamas

Orai ataskaitas ir orų prognozės (METAR, TAF).

turimą stotys yra geltonos ir raudonos taškus žemėlapyje.

Perkelti pele per norėdami pamatyti stoties vardą.

Tada spustelėkite, norėdami matyti oro stebėjimo ir prognozės.

Norėdami pakeisti žemėlapį: spustelėkite ant žalios mygtukų su juodo kryžiaus žemyn,; žalią mygtuką su brūkšneliu, jei norite nutolinti; arba žalių rodyklių gretimoms žemėlapius.


METAR-TAF: